Serenity — WDF3354 — position and weather

sailwx.info

Track history (hours):
 
Tides and Currents Weather Stations Pressure Air Temp Water Temp Dewpoint Dewpoint Depression Visibility Wind Speed Wind Dir Waves Ship Positions

Serenity

Owner: cox, robert e, Long Beach, CA. More information available from US FCC via Universal Licensing System and Coast Guard Vessel Documentation Center.

Last reported at 2015-Aug-26 22:05 UTC. Time now 2015-Sep-05 01:17 UTC.
Position N 48°32' W 122°48'.
Warning: this ship's position is 9 days out of date.

Length 14 m.

Type: Pleasure craft. MMSI: 367438910.

Date/timePositionNaut miles runAvg speedWind from/ knotsBaromVisibWave heightAir tempDewpointWater temp
2015-Aug-26 22:05N 48°32' W 122°48'4 7.7
2015-Aug-26 21:32N 48°34' W 122°53'34 0.7
2015-Aug-24 21:23N 48°53' W 123°37'7 8.1
2015-Aug-24 20:29N 48°59' W 123°43'14 7.3
2015-Aug-24 18:32N 49°10' W 123°56'0 0.0
2015-Aug-24 06:15N 49°10' W 123°56'0 0.0
2015-Aug-24 05:33N 49°10' W 123°56'0 0.0
2015-Aug-24 04:06N 49°10' W 123°56'0 0.0
2015-Aug-24 03:24N 49°10' W 123°56'0 0.0
2015-Aug-24 02:33N 49°10' W 123°56'0 0.0
2015-Aug-24 01:30N 49°10' W 123°56'0 0.0
2015-Aug-24 00:30N 49°10' W 123°56'0 0.0
2015-Aug-23 23:33N 49°10' W 123°56'0 0.0
2015-Aug-23 22:24N 49°10' W 123°56'0 0.0
2015-Aug-23 21:24N 49°10' W 123°56'0 0.1
2015-Aug-23 20:32N 49°10' W 123°56'3 2.9
2015-Aug-23 19:33N 49°13' W 123°56'9 8.9
2015-Aug-23 18:33N 49°22' W 123°58'8 8.3
2015-Aug-23 17:33N 49°30' W 124°02'8 7.8
2015-Aug-23 16:33N 49°37' W 124°04'1 1.4
2015-Aug-23 15:32N 49°38' W 124°02'0 0.0
2015-Aug-23 14:32N 49°38' W 124°02'0 0.0
2015-Aug-23 13:32N 49°38' W 124°02'0 0.0
2015-Aug-23 12:32N 49°38' W 124°02'0 0.0
2015-Aug-23 11:32N 49°38' W 124°02'0 0.0
2015-Aug-23 10:32N 49°38' W 124°02'0 0.0
2015-Aug-23 09:29N 49°38' W 124°02'0 0.0
2015-Aug-23 08:32N 49°38' W 124°02'0 0.0
2015-Aug-23 07:32N 49°38' W 124°02'0 0.0
2015-Aug-23 06:32N 49°38' W 124°02'0 0.0
2015-Aug-23 05:32N 49°38' W 124°02'0 0.0
2015-Aug-23 04:29N 49°38' W 124°02'0 0.0
2015-Aug-23 03:32N 49°38' W 124°02'0 0.0
2015-Aug-23 02:32N 49°38' W 124°02'0 0.0
2015-Aug-23 01:32N 49°38' W 124°02'0 0.0
2015-Aug-23 00:32N 49°38' W 124°02'0 0.0
2015-Aug-22 23:29N 49°38' W 124°02'0 0.0
2015-Aug-22 22:23N 49°38' W 124°02'0 0.2
2015-Aug-22 21:33N 49°38' W 124°02'8 7.5
2015-Aug-22 20:34N 49°40' W 124°13'8 7.8
2015-Aug-22 19:33N 49°45' W 124°23'9 7.6
2015-Aug-22 18:23N 49°50' W 124°35'  
2015-Aug-17 20:33N 49°59' W 125°11'4 3.6
2015-Aug-17 19:32N 50°02' W 125°15'0 0.0
2015-Aug-17 18:29N 50°02' W 125°15'0 0.0
2015-Aug-17 17:32N 50°02' W 125°15'0 0.0
2015-Aug-17 16:32N 50°02' W 125°15'0 0.0
2015-Aug-17 15:32N 50°02' W 125°15'0 0.0
2015-Aug-17 14:32N 50°02' W 125°15'0 0.0
2015-Aug-17 13:32N 50°02' W 125°15'0 0.0
2015-Aug-17 12:32N 50°02' W 125°15'0 0.0
2015-Aug-17 11:32N 50°02' W 125°15'0 0.0
2015-Aug-17 10:32N 50°02' W 125°15'0 0.0
2015-Aug-17 09:32N 50°02' W 125°15'0 0.0
2015-Aug-17 08:32N 50°02' W 125°15'0 0.0
2015-Aug-17 07:32N 50°02' W 125°15'0 0.0
2015-Aug-17 06:32N 50°02' W 125°15'0 0.0
2015-Aug-17 05:32N 50°02' W 125°15'  
Track history (hours):
 
Tides and Currents Weather Stations Pressure Air Temp Water Temp Dewpoint Dewpoint Depression Visibility Wind Speed Wind Dir Waves Ship Positions

Serenity

Owner: cox, robert e, Long Beach, CA. More information available from US FCC via Universal Licensing System and Coast Guard Vessel Documentation Center.

Last reported at 2015-Aug-26 22:05 UTC. Time now 2015-Sep-05 01:17 UTC.
Position N 48°32' W 122°48'.
Warning: this ship's position is 9 days out of date.

Length 14 m.

Type: Pleasure craft. MMSI: 367438910.

Date/timePositionNaut miles runAvg speedWind from/ knotsBaromVisibWave heightAir tempDewpointWater temp
2015-Aug-26 22:05N 48°32' W 122°48'4 7.7
2015-Aug-26 21:32N 48°34' W 122°53'34 0.7
2015-Aug-24 21:23N 48°53' W 123°37'7 8.1
2015-Aug-24 20:29N 48°59' W 123°43'14 7.3
2015-Aug-24 18:32N 49°10' W 123°56'0 0.0
2015-Aug-24 06:15N 49°10' W 123°56'0 0.0
2015-Aug-24 05:33N 49°10' W 123°56'0 0.0
2015-Aug-24 04:06N 49°10' W 123°56'0 0.0
2015-Aug-24 03:24N 49°10' W 123°56'0 0.0
2015-Aug-24 02:33N 49°10' W 123°56'0 0.0
2015-Aug-24 01:30N 49°10' W 123°56'0 0.0
2015-Aug-24 00:30N 49°10' W 123°56'0 0.0
2015-Aug-23 23:33N 49°10' W 123°56'0 0.0
2015-Aug-23 22:24N 49°10' W 123°56'0 0.0
2015-Aug-23 21:24N 49°10' W 123°56'0 0.1
2015-Aug-23 20:32N 49°10' W 123°56'3 2.9
2015-Aug-23 19:33N 49°13' W 123°56'9 8.9
2015-Aug-23 18:33N 49°22' W 123°58'8 8.3
2015-Aug-23 17:33N 49°30' W 124°02'8 7.8
2015-Aug-23 16:33N 49°37' W 124°04'1 1.4
2015-Aug-23 15:32N 49°38' W 124°02'0 0.0
2015-Aug-23 14:32N 49°38' W 124°02'0 0.0
2015-Aug-23 13:32N 49°38' W 124°02'0 0.0
2015-Aug-23 12:32N 49°38' W 124°02'0 0.0
2015-Aug-23 11:32N 49°38' W 124°02'0 0.0
2015-Aug-23 10:32N 49°38' W 124°02'0 0.0
2015-Aug-23 09:29N 49°38' W 124°02'0 0.0
2015-Aug-23 08:32N 49°38' W 124°02'0 0.0
2015-Aug-23 07:32N 49°38' W 124°02'0 0.0
2015-Aug-23 06:32N 49°38' W 124°02'0 0.0
2015-Aug-23 05:32N 49°38' W 124°02'0 0.0
2015-Aug-23 04:29N 49°38' W 124°02'0 0.0
2015-Aug-23 03:32N 49°38' W 124°02'0 0.0
2015-Aug-23 02:32N 49°38' W 124°02'0 0.0
2015-Aug-23 01:32N 49°38' W 124°02'0 0.0
2015-Aug-23 00:32N 49°38' W 124°02'0 0.0
2015-Aug-22 23:29N 49°38' W 124°02'0 0.0
2015-Aug-22 22:23N 49°38' W 124°02'0 0.2
2015-Aug-22 21:33N 49°38' W 124°02'8 7.5
2015-Aug-22 20:34N 49°40' W 124°13'8 7.8
2015-Aug-22 19:33N 49°45' W 124°23'9 7.6
2015-Aug-22 18:23N 49°50' W 124°35'  
2015-Aug-17 20:33N 49°59' W 125°11'4 3.6
2015-Aug-17 19:32N 50°02' W 125°15'0 0.0
2015-Aug-17 18:29N 50°02' W 125°15'0 0.0
2015-Aug-17 17:32N 50°02' W 125°15'0 0.0
2015-Aug-17 16:32N 50°02' W 125°15'0 0.0
2015-Aug-17 15:32N 50°02' W 125°15'0 0.0
2015-Aug-17 14:32N 50°02' W 125°15'0 0.0
2015-Aug-17 13:32N 50°02' W 125°15'0 0.0
2015-Aug-17 12:32N 50°02' W 125°15'0 0.0
2015-Aug-17 11:32N 50°02' W 125°15'0 0.0
2015-Aug-17 10:32N 50°02' W 125°15'0 0.0
2015-Aug-17 09:32N 50°02' W 125°15'0 0.0
2015-Aug-17 08:32N 50°02' W 125°15'0 0.0
2015-Aug-17 07:32N 50°02' W 125°15'0 0.0
2015-Aug-17 06:32N 50°02' W 125°15'0 0.0
2015-Aug-17 05:32N 50°02' W 125°15'  

Dump ship's entire track history